createdAt,value
2022-10-30T00:01:23.558Z,15.90
2022-10-30T00:03:52.076Z,16.00
2022-10-30T00:06:21.892Z,16.00
2022-10-30T00:08:50.416Z,15.90
2022-10-30T00:11:18.870Z,15.80
2022-10-30T00:13:47.383Z,15.80
2022-10-30T00:16:15.881Z,15.80
2022-10-30T00:18:44.394Z,15.80
2022-10-30T00:21:14.805Z,15.80
2022-10-30T00:23:48.879Z,15.80
2022-10-30T00:26:18.470Z,15.80
2022-10-30T00:28:51.273Z,15.80
2022-10-30T00:31:20.492Z,15.80
2022-10-30T00:33:50.921Z,15.90
2022-10-30T00:36:19.741Z,15.90
2022-10-30T00:38:49.668Z,16.00
2022-10-30T00:41:23.976Z,16.00
2022-10-30T00:43:53.377Z,16.00
2022-10-30T00:46:29.076Z,16.00
2022-10-30T00:49:04.052Z,16.10
2022-10-30T00:51:35.095Z,16.10
2022-10-30T00:54:07.509Z,16.00
2022-10-30T00:56:37.382Z,16.00
2022-10-30T00:59:09.021Z,16.00
2022-10-30T01:01:39.731Z,16.00
2022-10-30T01:04:08.733Z,16.00
2022-10-30T01:06:39.903Z,16.00
2022-10-30T01:09:10.248Z,16.00
2022-10-30T01:11:38.792Z,16.00
2022-10-30T01:14:13.880Z,16.00
2022-10-30T01:16:59.151Z,15.90
2022-10-30T01:19:40.658Z,15.90
2022-10-30T01:22:22.126Z,15.80
2022-10-30T01:25:04.645Z,15.80
2022-10-30T01:27:41.320Z,15.70
2022-10-30T01:30:23.719Z,15.70
2022-10-30T01:33:05.810Z,15.60
2022-10-30T01:35:39.606Z,15.60
2022-10-30T01:38:16.028Z,15.60
2022-10-30T01:40:46.982Z,15.50
2022-10-30T01:43:15.747Z,15.50
2022-10-30T01:46:22.797Z,15.40
2022-10-30T01:49:09.701Z,15.40
2022-10-30T01:51:52.281Z,15.40
2022-10-30T01:54:30.104Z,15.40
2022-10-30T01:57:05.680Z,15.40
2022-10-30T01:59:38.941Z,15.50
2022-10-30T02:02:10.245Z,15.40
2022-10-30T02:04:39.869Z,15.40
2022-10-30T02:07:08.592Z,15.40
2022-10-30T02:09:44.056Z,15.40
2022-10-30T02:12:17.479Z,15.30
2022-10-30T02:14:49.468Z,15.30
2022-10-30T02:17:19.092Z,15.30
2022-10-30T02:19:49.390Z,15.20
2022-10-30T02:22:19.565Z,15.20
2022-10-30T02:24:48.119Z,15.10
2022-10-30T02:27:16.630Z,15.10
2022-10-30T02:29:45.296Z,15.00
2022-10-30T02:32:13.820Z,15.00
2022-10-30T02:34:44.735Z,15.00
2022-10-30T02:37:13.290Z,14.90
2022-10-30T02:39:43.579Z,14.80
2022-10-30T02:42:12.504Z,14.80
2022-10-30T02:44:41.006Z,14.80
2022-10-30T02:47:09.571Z,14.80
2022-10-30T02:49:38.881Z,14.70
2022-10-30T02:52:08.092Z,14.70
2022-10-30T02:54:36.910Z,14.60
2022-10-30T02:57:06.831Z,14.60
2022-10-30T02:59:35.319Z,14.60
2022-10-30T03:02:04.178Z,14.60
2022-10-30T03:04:33.347Z,14.60
2022-10-30T03:07:08.761Z,14.50
2022-10-30T03:09:37.672Z,14.50
2022-10-30T03:12:08.057Z,14.50
2022-10-30T03:14:36.773Z,14.40
2022-10-30T03:17:06.133Z,14.40
2022-10-30T03:19:35.565Z,14.40
2022-10-30T03:22:04.074Z,14.40
2022-10-30T03:24:32.579Z,14.30
2022-10-30T03:27:01.090Z,14.30
2022-10-30T03:29:31.859Z,14.20
2022-10-30T03:32:00.727Z,14.20
2022-10-30T03:34:33.171Z,14.10
2022-10-30T03:37:06.975Z,14.10
2022-10-30T03:39:35.950Z,14.10
2022-10-30T03:42:04.955Z,14.00
2022-10-30T03:44:34.766Z,14.00
2022-10-30T03:47:04.613Z,14.00
2022-10-30T03:49:37.248Z,14.00
2022-10-30T03:52:10.973Z,13.90
2022-10-30T03:54:39.462Z,13.90
2022-10-30T03:57:09.264Z,13.90
2022-10-30T04:00:03.976Z,13.90
2022-10-30T04:02:53.620Z,13.80
2022-10-30T04:05:23.648Z,13.80
2022-10-30T04:07:57.758Z,13.80
2022-10-30T04:10:27.496Z,13.80
2022-10-30T04:13:01.933Z,13.70
2022-10-30T04:15:32.343Z,13.70
2022-10-30T04:18:01.564Z,13.70
2022-10-30T04:20:30.956Z,13.70
2022-10-30T04:23:00.879Z,13.60
2022-10-30T04:25:30.747Z,13.60
2022-10-30T04:28:01.954Z,13.60
2022-10-30T04:30:35.158Z,13.60
2022-10-30T04:33:05.648Z,13.60
2022-10-30T04:35:37.479Z,13.60
2022-10-30T04:38:10.211Z,13.50
2022-10-30T04:40:40.484Z,13.50
2022-10-30T04:43:11.340Z,13.40
2022-10-30T04:45:42.665Z,13.50
2022-10-30T04:48:13.209Z,13.40
2022-10-30T04:50:43.351Z,13.40
2022-10-30T04:53:14.806Z,13.40
2022-10-30T04:55:44.377Z,13.40
2022-10-30T04:58:14.622Z,13.30
2022-10-30T05:00:46.844Z,13.40
2022-10-30T05:03:20.755Z,13.30
2022-10-30T05:05:49.751Z,13.30
2022-10-30T05:08:19.269Z,13.30
2022-10-30T05:10:47.875Z,13.30
2022-10-30T05:13:16.971Z,13.30
2022-10-30T05:15:46.866Z,13.30
2022-10-30T05:18:15.684Z,13.30
2022-10-30T05:20:47.365Z,13.20
2022-10-30T05:23:15.912Z,13.20
2022-10-30T05:25:44.396Z,13.20
2022-10-30T05:28:14.392Z,13.20
2022-10-30T05:30:49.149Z,13.10
2022-10-30T05:33:37.725Z,13.10
2022-10-30T05:36:07.603Z,13.10
2022-10-30T05:38:36.151Z,13.10
2022-10-30T05:41:05.682Z,13.10
2022-10-30T05:43:34.211Z,13.00
2022-10-30T05:46:04.289Z,13.00
2022-10-30T05:48:33.555Z,13.00
2022-10-30T05:51:02.503Z,13.00
2022-10-30T05:53:32.376Z,13.00
2022-10-30T05:56:01.788Z,13.00
2022-10-30T05:58:33.566Z,12.90
2022-10-30T06:01:08.284Z,12.90
2022-10-30T06:03:46.653Z,12.90
2022-10-30T06:06:15.229Z,12.90
2022-10-30T06:08:44.960Z,12.80
2022-10-30T06:11:32.565Z,12.80
2022-10-30T06:14:02.789Z,12.80
2022-10-30T06:16:53.569Z,12.80
2022-10-30T06:19:34.144Z,12.80
2022-10-30T06:22:16.717Z,12.80
2022-10-30T06:24:51.658Z,12.80
2022-10-30T06:27:25.751Z,12.80
2022-10-30T06:29:55.840Z,12.80
2022-10-30T06:32:25.681Z,12.80
2022-10-30T06:34:54.711Z,12.70
2022-10-30T06:37:23.410Z,12.80
2022-10-30T06:39:52.056Z,12.70
2022-10-30T06:42:44.300Z,12.70
2022-10-30T06:45:25.832Z,12.70
2022-10-30T06:47:55.976Z,12.60
2022-10-30T06:50:25.199Z,12.60
2022-10-30T06:52:56.879Z,12.60
2022-10-30T06:55:25.444Z,12.60
2022-10-30T06:58:12.632Z,12.70
2022-10-30T07:01:09.220Z,12.60
2022-10-30T07:03:57.795Z,12.60
2022-10-30T07:06:26.390Z,12.60
2022-10-30T07:08:54.988Z,12.60
2022-10-30T07:11:23.822Z,12.60
2022-10-30T07:14:02.949Z,12.60
2022-10-30T07:16:36.579Z,12.60
2022-10-30T07:19:06.834Z,12.60
2022-10-30T07:21:35.947Z,12.60
2022-10-30T07:24:08.249Z,12.60
2022-10-30T07:26:45.211Z,12.70
2022-10-30T07:29:33.129Z,12.70
2022-10-30T07:32:21.905Z,12.70
2022-10-30T07:34:53.376Z,12.80
2022-10-30T07:37:42.500Z,12.80
2022-10-30T07:40:14.713Z,12.90
2022-10-30T07:42:57.981Z,12.90
2022-10-30T07:45:46.498Z,12.90
2022-10-30T07:48:33.368Z,13.00
2022-10-30T07:51:25.860Z,13.00
2022-10-30T07:53:54.468Z,13.10
2022-10-30T07:56:25.288Z,13.10
2022-10-30T07:58:53.884Z,13.20
2022-10-30T08:01:34.852Z,13.20
2022-10-30T08:04:30.463Z,13.30
2022-10-30T08:07:08.547Z,13.40
2022-10-30T08:09:37.031Z,13.60
2022-10-30T08:12:06.332Z,13.60
2022-10-30T08:14:35.304Z,13.70
2022-10-30T08:17:05.132Z,13.80
2022-10-30T08:19:34.015Z,13.90
2022-10-30T08:22:02.627Z,14.00
2022-10-30T08:24:37.546Z,14.10
2022-10-30T08:27:07.267Z,14.20
2022-10-30T08:29:35.817Z,14.30
2022-10-30T08:32:04.686Z,14.30
2022-10-30T08:34:51.474Z,14.40
2022-10-30T08:37:21.268Z,14.50
2022-10-30T08:39:51.429Z,14.60
2022-10-30T08:42:38.663Z,14.70
2022-10-30T08:45:12.047Z,14.80
2022-10-30T08:48:00.512Z,14.90
2022-10-30T08:50:30.749Z,14.90
2022-10-30T08:53:02.954Z,15.00
2022-10-30T08:55:34.099Z,15.10
2022-10-30T08:58:05.053Z,15.20
2022-10-30T09:00:34.216Z,15.30
2022-10-30T09:03:14.893Z,15.30
2022-10-30T09:06:12.962Z,15.40
2022-10-30T09:09:00.124Z,15.50
2022-10-30T09:11:35.488Z,15.60
2022-10-30T09:14:04.066Z,15.70
2022-10-30T09:16:32.559Z,15.70
2022-10-30T09:19:01.116Z,15.80
2022-10-30T09:21:29.660Z,15.90
2022-10-30T09:23:58.323Z,16.00
2022-10-30T09:26:39.966Z,16.10
2022-10-30T09:29:19.519Z,16.10
2022-10-30T09:32:08.621Z,16.20
2022-10-30T09:34:42.022Z,16.30
2022-10-30T09:37:42.953Z,16.40
2022-10-30T09:40:24.972Z,16.40
2022-10-30T09:42:58.798Z,16.50
2022-10-30T09:45:55.787Z,16.60
2022-10-30T09:48:44.928Z,16.70
2022-10-30T09:51:32.495Z,16.70
2022-10-30T09:54:10.316Z,16.90
2022-10-30T09:56:48.891Z,16.90
2022-10-30T09:59:32.511Z,17.00
2022-10-30T10:02:05.830Z,17.10
2022-10-30T10:04:41.973Z,17.20
2022-10-30T10:07:35.440Z,17.30
2022-10-30T10:10:21.195Z,17.40
2022-10-30T10:13:00.999Z,17.50
2022-10-30T10:15:39.607Z,17.60
2022-10-30T10:18:17.379Z,17.70
2022-10-30T10:20:51.288Z,17.80
2022-10-30T10:23:22.783Z,17.80
2022-10-30T10:25:54.804Z,17.90
2022-10-30T10:28:43.915Z,18.00
2022-10-30T10:31:25.580Z,18.10
2022-10-30T10:34:13.119Z,18.20
2022-10-30T10:36:47.950Z,18.20
2022-10-30T10:39:32.975Z,18.30
2022-10-30T10:42:14.353Z,18.40
2022-10-30T10:44:54.850Z,18.40
2022-10-30T10:48:22.484Z,18.50
2022-10-30T10:50:54.465Z,18.60
2022-10-30T10:53:28.574Z,18.60
2022-10-30T10:56:01.552Z,18.70
2022-10-30T10:58:39.650Z,18.70
2022-10-30T11:01:15.195Z,18.70
2022-10-30T11:03:53.868Z,18.80
2022-10-30T11:06:27.071Z,18.90
2022-10-30T11:09:03.364Z,19.00
2022-10-30T11:11:31.944Z,19.00
2022-10-30T11:14:00.532Z,19.00
2022-10-30T11:16:34.947Z,19.10
2022-10-30T11:19:09.112Z,19.10
2022-10-30T11:21:43.075Z,19.20
2022-10-30T11:24:28.242Z,19.20
2022-10-30T11:26:57.970Z,19.20
2022-10-30T11:29:29.529Z,19.30
2022-10-30T11:32:02.937Z,19.30
2022-10-30T11:34:37.341Z,19.40
2022-10-30T11:37:06.664Z,19.40
2022-10-30T11:39:36.385Z,19.50
2022-10-30T11:42:07.851Z,19.60
2022-10-30T11:44:39.423Z,19.70
2022-10-30T11:47:09.837Z,19.70
2022-10-30T11:49:45.855Z,19.80
2022-10-30T11:52:17.567Z,19.90
2022-10-30T11:54:49.449Z,19.90
2022-10-30T11:57:23.467Z,20.00
2022-10-30T11:59:57.249Z,20.10
2022-10-30T12:02:30.137Z,20.10
2022-10-30T12:05:03.106Z,20.10
2022-10-30T12:07:33.336Z,20.10
2022-10-30T12:10:03.041Z,20.10
2022-10-30T12:12:35.063Z,20.10
2022-10-30T12:15:11.969Z,20.10
2022-10-30T12:17:41.228Z,20.20
2022-10-30T12:20:15.886Z,20.20
2022-10-30T12:22:44.551Z,20.20
2022-10-30T12:25:27.664Z,20.20
2022-10-30T12:28:01.847Z,20.20
2022-10-30T12:30:33.696Z,20.20
2022-10-30T12:33:09.173Z,20.20
2022-10-30T12:35:43.919Z,20.20
2022-10-30T12:38:21.135Z,20.10
2022-10-30T12:41:01.108Z,20.10
2022-10-30T12:43:32.750Z,20.10
2022-10-30T12:46:14.948Z,20.10
2022-10-30T12:48:50.679Z,20.10
2022-10-30T12:51:27.330Z,20.00
2022-10-30T12:54:01.054Z,20.00
2022-10-30T12:56:34.798Z,20.00
2022-10-30T12:59:22.257Z,20.00
2022-10-30T13:01:55.696Z,20.00
2022-10-30T13:04:28.459Z,20.00
2022-10-30T13:07:04.420Z,20.00
2022-10-30T13:09:40.108Z,20.10
2022-10-30T13:12:13.653Z,20.00
2022-10-30T13:14:46.418Z,20.00
2022-10-30T13:17:15.908Z,20.00
2022-10-30T13:19:46.823Z,20.00
2022-10-30T13:22:23.867Z,19.90
2022-10-30T13:25:03.928Z,19.90
2022-10-30T13:27:43.117Z,19.90
2022-10-30T13:30:16.441Z,19.80
2022-10-30T13:33:01.398Z,19.80
2022-10-30T13:35:36.868Z,19.80
2022-10-30T13:38:22.296Z,19.80
2022-10-30T13:40:54.724Z,19.70
2022-10-30T13:43:27.523Z,19.80
2022-10-30T13:46:23.759Z,19.80
2022-10-30T13:49:10.298Z,19.80
2022-10-30T13:51:43.361Z,19.80
2022-10-30T13:54:19.224Z,19.70
2022-10-30T13:56:49.987Z,19.70
2022-10-30T13:59:32.374Z,19.70
2022-10-30T14:02:08.739Z,19.60
2022-10-30T14:04:43.297Z,19.60
2022-10-30T14:07:27.803Z,19.50
2022-10-30T14:10:03.360Z,19.50
2022-10-30T14:12:50.235Z,19.40
2022-10-30T14:15:28.512Z,19.40
2022-10-30T14:18:25.778Z,19.40
2022-10-30T14:20:55.324Z,19.30
2022-10-30T14:23:26.591Z,19.30
2022-10-30T14:26:21.512Z,19.20
2022-10-30T14:28:52.124Z,19.20
2022-10-30T14:31:33.704Z,19.20
2022-10-30T14:34:02.561Z,19.20
2022-10-30T14:36:50.299Z,19.10
2022-10-30T14:39:29.956Z,19.10
2022-10-30T14:42:09.240Z,19.10
2022-10-30T14:45:01.842Z,19.10
2022-10-30T14:47:58.385Z,19.00
2022-10-30T14:50:41.787Z,19.00
2022-10-30T14:53:22.867Z,19.00
2022-10-30T14:56:04.202Z,19.00
2022-10-30T14:58:36.199Z,19.10
2022-10-30T15:01:31.864Z,19.10
2022-10-30T15:04:12.670Z,19.10
2022-10-30T15:06:56.747Z,19.00
2022-10-30T15:09:48.444Z,19.00
2022-10-30T15:12:34.956Z,18.90
2022-10-30T15:15:07.308Z,18.90
2022-10-30T15:17:40.472Z,18.90
2022-10-30T15:20:15.907Z,18.80
2022-10-30T15:22:44.846Z,18.80
2022-10-30T15:25:19.400Z,18.90
2022-10-30T15:27:50.024Z,18.80
2022-10-30T15:30:21.540Z,18.70
2022-10-30T15:32:50.448Z,18.70
2022-10-30T15:35:21.052Z,18.60
2022-10-30T15:38:04.359Z,18.60
2022-10-30T15:40:34.329Z,18.60
2022-10-30T15:43:04.485Z,18.50
2022-10-30T15:45:37.471Z,18.50
2022-10-30T15:48:09.997Z,18.50
2022-10-30T15:50:43.791Z,18.40
2022-10-30T15:53:19.304Z,18.40
2022-10-30T15:55:48.871Z,18.40
2022-10-30T15:58:22.611Z,18.30
2022-10-30T16:01:02.861Z,18.40
2022-10-30T16:03:32.721Z,18.20
2022-10-30T16:06:14.979Z,18.10
2022-10-30T16:08:45.696Z,18.10
2022-10-30T16:11:15.150Z,18.00
2022-10-30T16:13:43.940Z,18.00
2022-10-30T16:16:19.949Z,18.00
2022-10-30T16:18:49.224Z,17.90
2022-10-30T16:21:22.122Z,17.80
2022-10-30T16:23:53.115Z,17.80
2022-10-30T16:26:29.882Z,17.70
2022-10-30T16:29:00.103Z,17.60
2022-10-30T16:31:34.073Z,17.50
2022-10-30T16:34:05.428Z,17.40
2022-10-30T16:36:34.425Z,17.30
2022-10-30T16:39:04.161Z,17.20
2022-10-30T16:41:33.280Z,17.20
2022-10-30T16:44:27.340Z,17.10
2022-10-30T16:47:01.521Z,17.00
2022-10-30T16:49:35.759Z,16.90
2022-10-30T16:52:06.770Z,16.90
2022-10-30T16:54:39.390Z,16.80
2022-10-30T16:57:17.078Z,16.80
2022-10-30T16:59:48.188Z,16.70
2022-10-30T17:02:22.151Z,16.70
2022-10-30T17:04:57.007Z,16.60
2022-10-30T17:07:27.846Z,16.60
2022-10-30T17:09:58.381Z,16.50
2022-10-30T17:12:28.138Z,16.50
2022-10-30T17:15:04.209Z,16.50
2022-10-30T17:17:36.048Z,16.40
2022-10-30T17:22:40.618Z,16.40
2022-10-30T17:25:29.882Z,16.40
2022-10-30T17:27:58.748Z,16.30
2022-10-30T17:30:35.461Z,16.30
2022-10-30T17:33:24.506Z,16.20
2022-10-30T17:38:22.819Z,16.10
2022-10-30T17:40:51.397Z,16.10
2022-10-30T17:43:19.914Z,16.00
2022-10-30T17:45:48.426Z,16.00
2022-10-30T17:48:19.639Z,16.00
2022-10-30T17:50:48.442Z,15.90
2022-10-30T17:53:21.586Z,15.90
2022-10-30T17:55:56.785Z,15.80
2022-10-30T17:58:25.549Z,15.80
2022-10-30T18:00:54.092Z,15.70
2022-10-30T18:03:24.048Z,15.70
2022-10-30T18:05:54.287Z,15.70
2022-10-30T18:08:22.901Z,15.60
2022-10-30T18:10:51.481Z,15.60
2022-10-30T18:13:20.548Z,15.60
2022-10-30T18:15:55.506Z,15.50
2022-10-30T18:18:25.805Z,15.50
2022-10-30T18:20:54.336Z,15.40
2022-10-30T18:23:51.234Z,15.40
2022-10-30T18:26:15.898Z,15.30
2022-10-30T18:28:44.716Z,15.30
2022-10-30T18:31:14.247Z,15.30
2022-10-30T18:33:47.569Z,15.30
2022-10-30T18:36:18.037Z,15.20
2022-10-30T18:38:46.835Z,15.20
2022-10-30T18:41:16.875Z,15.20
2022-10-30T18:43:46.983Z,15.10
2022-10-30T18:46:17.086Z,15.10
2022-10-30T18:48:47.152Z,15.00
2022-10-30T18:51:18.551Z,15.00
2022-10-30T18:53:52.407Z,15.10
2022-10-30T18:56:23.417Z,15.00
2022-10-30T18:58:56.405Z,15.00
2022-10-30T19:01:30.913Z,15.00
2022-10-30T19:04:03.429Z,15.00
2022-10-30T19:06:32.852Z,15.00
2022-10-30T19:09:01.571Z,14.90
2022-10-30T19:11:31.935Z,14.90
2022-10-30T19:14:01.057Z,14.90
2022-10-30T19:16:29.731Z,14.80
2022-10-30T19:18:59.750Z,14.80
2022-10-30T19:21:28.423Z,14.80
2022-10-30T19:23:57.083Z,14.80
2022-10-30T19:26:25.741Z,14.70
2022-10-30T19:28:54.266Z,14.70
2022-10-30T19:31:22.810Z,14.70
2022-10-30T19:33:54.608Z,14.60
2022-10-30T19:36:29.996Z,14.60
2022-10-30T19:39:00.785Z,14.60
2022-10-30T19:41:31.516Z,14.60
2022-10-30T19:44:00.005Z,14.50
2022-10-30T19:46:28.453Z,14.50
2022-10-30T19:48:58.545Z,14.50
2022-10-30T19:51:29.793Z,14.40
2022-10-30T19:53:58.277Z,14.40
2022-10-30T19:56:26.867Z,14.40
2022-10-30T19:58:55.368Z,14.40
2022-10-30T20:01:23.951Z,14.30
2022-10-30T20:03:52.603Z,14.30
2022-10-30T20:06:21.467Z,14.40
2022-10-30T20:08:51.391Z,14.30
2022-10-30T20:11:19.987Z,14.30
2022-10-30T20:13:50.741Z,14.20
2022-10-30T20:16:23.167Z,14.20
2022-10-30T20:18:51.645Z,14.20
2022-10-30T20:21:20.717Z,14.20
2022-10-30T20:23:49.260Z,14.20
2022-10-30T20:26:25.093Z,14.20
2022-10-30T20:28:54.512Z,14.20
2022-10-30T20:31:23.271Z,14.10
2022-10-30T20:33:51.797Z,14.10
2022-10-30T20:36:20.369Z,14.10
2022-10-30T20:38:48.900Z,14.10
2022-10-30T20:41:23.492Z,14.10
2022-10-30T20:43:52.287Z,14.10
2022-10-30T20:46:21.789Z,14.10
2022-10-30T20:48:50.328Z,14.10
2022-10-30T20:51:18.920Z,14.00
2022-10-30T20:53:47.812Z,14.10
2022-10-30T20:56:16.596Z,14.10
2022-10-30T20:58:46.426Z,14.10
2022-10-30T21:01:15.050Z,14.10
2022-10-30T21:03:43.651Z,14.10
2022-10-30T21:06:13.265Z,14.00
2022-10-30T21:08:41.719Z,14.00
2022-10-30T21:11:10.357Z,14.00
2022-10-30T21:13:38.847Z,14.00
2022-10-30T21:16:10.288Z,14.00
2022-10-30T21:18:38.784Z,14.00
2022-10-30T21:21:11.402Z,14.00
2022-10-30T21:23:39.966Z,13.90
2022-10-30T21:26:11.717Z,13.90
2022-10-30T21:28:40.465Z,13.90
2022-10-30T21:31:13.739Z,13.90
2022-10-30T21:33:42.293Z,13.80
2022-10-30T21:36:13.432Z,13.80
2022-10-30T21:38:43.219Z,13.80
2022-10-30T21:41:13.824Z,13.80
2022-10-30T21:43:42.398Z,13.80
2022-10-30T21:46:13.680Z,13.70
2022-10-30T21:48:42.200Z,13.70
2022-10-30T21:51:13.335Z,13.70
2022-10-30T21:53:42.233Z,13.70
2022-10-30T21:56:13.099Z,13.70
2022-10-30T21:58:42.092Z,13.60
2022-10-30T22:01:16.677Z,13.60
2022-10-30T22:03:45.521Z,13.60
2022-10-30T22:06:15.893Z,13.60
2022-10-30T22:08:46.459Z,13.60
2022-10-30T22:11:18.842Z,13.60
2022-10-30T22:13:47.832Z,13.60
2022-10-30T22:16:17.764Z,13.60
2022-10-30T22:18:46.239Z,13.60
2022-10-30T22:21:14.795Z,13.50
2022-10-30T22:23:44.028Z,13.50
2022-10-30T22:26:14.397Z,13.50
2022-10-30T22:28:43.984Z,13.40
2022-10-30T22:31:14.484Z,13.40
2022-10-30T22:33:44.921Z,13.40
2022-10-30T22:36:16.673Z,13.40
2022-10-30T22:38:45.830Z,13.30
2022-10-30T22:41:16.688Z,13.30
2022-10-30T22:43:46.354Z,13.30
2022-10-30T22:46:16.273Z,13.30
2022-10-30T22:48:46.799Z,13.20
2022-10-30T22:51:17.101Z,13.20
2022-10-30T22:53:46.235Z,13.20
2022-10-30T22:56:17.248Z,13.20
2022-10-30T22:58:46.169Z,13.20
2022-10-30T23:01:16.254Z,13.20
2022-10-30T23:03:46.849Z,13.20
2022-10-30T23:06:15.463Z,13.10
2022-10-30T23:08:44.030Z,13.10
2022-10-30T23:11:13.151Z,13.10
2022-10-30T23:13:42.085Z,13.00
2022-10-30T23:16:14.333Z,13.00
2022-10-30T23:18:43.413Z,13.00
2022-10-30T23:21:15.668Z,13.00
2022-10-30T23:23:45.019Z,13.00
2022-10-30T23:26:14.858Z,12.90
2022-10-30T23:28:43.750Z,12.90
2022-10-30T23:31:19.487Z,12.90
2022-10-30T23:33:48.617Z,12.80
2022-10-30T23:36:19.066Z,12.80
2022-10-30T23:38:52.174Z,12.80
2022-10-30T23:41:21.090Z,12.80
2022-10-30T23:43:49.944Z,12.70
2022-10-30T23:46:18.436Z,12.70
2022-10-30T23:48:46.869Z,12.70
2022-10-30T23:51:15.455Z,12.60
2022-10-30T23:53:45.323Z,12.60
2022-10-30T23:56:14.374Z,12.60
2022-10-30T23:58:44.710Z,12.60
